Time;durP1;ratioP1;P1;durP2;ratioP2;P2;SDS_P1;SDS_P2;PMS_P1;PMS_P2;Temp;Humidity;BMP_temperature;BMP_pressure;BME280_temperature;BME280_humidity;BME280_pressure;Samples;Min_cycle;Max_cycle;Signal;HPM_P1;HPM_P2
2023/04/16 00:01:58;;;;;;;36.17;22.27;;;;;;;15.04;45.30;92911.31;4983218;28;20054;-91
2023/04/16 00:04:24;;;;;;;30.55;21.38;;;;;;;15.05;45.13;92901.91;5001715;28;20504;-90
2023/04/16 00:06:49;;;;;;;31.95;20.75;;;;;;;15.12;45.13;92912.28;4970574;28;20490;-91
2023/04/16 00:09:15;;;;;;;28.42;19.98;;;;;;;15.13;45.34;92902.13;4969696;28;20035;-91
2023/04/16 00:11:40;;;;;;;31.80;20.52;;;;;;;15.06;45.07;92903.38;4971229;28;20045;-91
2023/04/16 00:14:06;;;;;;;32.63;19.92;;;;;;;15.08;45.13;92917.97;4975339;28;20035;-91
2023/04/16 00:16:31;;;;;;;31.52;20.48;;;;;;;15.08;45.28;92909.81;4986164;28;20039;-90
2023/04/16 00:18:57;;;;;;;32.88;20.30;;;;;;;15.06;45.24;92908.81;4970836;28;20054;-90
2023/04/16 00:21:22;;;;;;;32.95;20.13;;;;;;;15.06;45.14;92914.28;4969050;28;20039;-91
2023/04/16 00:23:48;;;;;;;33.15;20.85;;;;;;;15.07;45.11;92913.03;5003517;28;20038;-90
2023/04/16 00:26:13;;;;;;;28.48;18.77;;;;;;;15.11;45.18;92912.78;4972609;28;20030;-90
2023/04/16 00:28:38;;;;;;;32.05;19.55;;;;;;;15.05;44.94;92908.09;5002407;28;20046;-91
2023/04/16 00:31:04;;;;;;;33.95;18.88;;;;;;;15.07;45.16;92902.88;4969083;28;20433;-90
2023/04/16 00:33:29;;;;;;;31.67;19.33;;;;;;;15.04;45.09;92914.78;4969571;28;20120;-90
2023/04/16 00:35:55;;;;;;;32.92;20.05;;;;;;;14.99;45.22;92907.34;4953567;28;20046;-91
2023/04/16 00:38:20;;;;;;;33.13;19.73;;;;;;;15.09;45.03;92896.94;4953231;28;20047;-90
2023/04/16 00:40:46;;;;;;;33.75;18.83;;;;;;;15.05;45.20;92905.38;4985630;28;20081;-91
2023/04/16 00:43:19;;;;;;;31.05;18.58;;;;;;;15.04;45.30;92903.88;4964886;28;20035;-91
2023/04/16 00:45:45;;;;;;;30.15;18.45;;;;;;;15.00;45.00;92908.84;5004867;28;20121;-91
2023/04/16 00:48:10;;;;;;;28.20;18.42;;;;;;;15.03;45.34;92912.53;4989641;28;20137;-91
2023/04/16 00:50:35;;;;;;;30.23;18.88;;;;;;;15.02;45.29;92917.25;4974375;28;20057;-90
2023/04/16 00:53:01;;;;;;;27.55;17.65;;;;;;;15.03;45.19;92912.53;4970779;28;20469;-91
2023/04/16 00:55:26;;;;;;;25.65;17.92;;;;;;;15.02;45.28;92913.78;4973519;28;20386;-91
2023/04/16 00:57:52;;;;;;;26.77;17.48;;;;;;;15.01;45.06;92907.59;4957323;28;20039;-90
2023/04/16 01:00:17;;;;;;;31.75;18.33;;;;;;;15.00;45.05;92914.28;4953854;28;20197;-91
2023/04/16 01:02:42;;;;;;;25.48;17.50;;;;;;;15.00;45.16;92911.56;4962276;28;20041;-91
2023/04/16 01:05:08;;;;;;;28.58;17.90;;;;;;;14.97;44.98;92909.84;4968760;28;20042;-91
2023/04/16 01:07:33;;;;;;;26.00;18.00;;;;;;;15.04;45.19;92908.59;4951747;28;20043;-91
2023/04/16 01:09:59;;;;;;;26.75;16.73;;;;;;;15.07;45.06;92910.31;4966954;28;20046;-91
2023/04/16 01:12:24;;;;;;;26.27;17.13;;;;;;;15.05;45.35;92910.06;4957651;28;20101;-91
2023/04/16 01:14:50;;;;;;;27.63;16.00;;;;;;;15.06;45.24;92911.53;4971154;28;20104;-91
2023/04/16 01:17:15;;;;;;;27.77;17.00;;;;;;;15.03;44.92;92910.56;4961346;28;20049;-91
2023/04/16 01:19:41;;;;;;;27.90;17.05;;;;;;;15.05;45.13;92904.63;4929373;29;20044;-90
2023/04/16 01:22:07;;;;;;;27.45;17.05;;;;;;;15.03;45.13;92905.13;4896693;29;20173;-91
2023/04/16 01:24:32;;;;;;;24.85;15.77;;;;;;;15.08;45.17;92911.78;4896794;29;20063;-91
2023/04/16 01:26:58;;;;;;;25.52;16.55;;;;;;;15.02;45.25;92919.97;4897020;29;20048;-90
2023/04/16 01:29:24;;;;;;;25.92;16.02;;;;;;;14.99;45.50;92923.69;4916089;28;20135;-92
2023/04/16 01:31:49;;;;;;;25.73;15.68;;;;;;;14.98;45.02;92935.06;4916375;29;20035;-92
2023/04/16 01:34:15;;;;;;;22.98;16.27;;;;;;;15.02;44.96;92936.31;4915099;28;20518;-92
2023/04/16 01:36:40;;;;;;;24.75;15.38;;;;;;;15.00;45.56;92932.59;4916150;29;20039;-92
2023/04/16 01:39:06;;;;;;;26.50;15.10;;;;;;;15.07;45.32;92938.28;4900217;29;20139;-92
2023/04/16 01:41:31;;;;;;;24.92;15.68;;;;;;;15.02;45.16;92930.84;4881555;29;20079;-92
2023/04/16 01:43:57;;;;;;;24.10;14.60;;;;;;;15.04;45.42;92933.81;4903578;29;20046;-91
2023/04/16 01:46:29;;;;;;;24.25;14.77;;;;;;;15.07;45.39;92934.81;4915342;28;20043;-92
2023/04/16 01:48:55;;;;;;;23.25;15.13;;;;;;;15.04;45.26;92938.53;4916417;29;20566;-93
2023/04/16 01:51:21;;;;;;;24.80;15.07;;;;;;;15.06;45.24;92936.03;4942049;28;20039;-93
2023/04/16 01:53:46;;;;;;;23.42;14.77;;;;;;;15.04;45.07;92935.81;5001423;28;20042;-93
2023/04/16 01:56:12;;;;;;;21.92;14.68;;;;;;;15.00;45.23;92938.03;4968297;28;20030;-93
2023/04/16 01:58:37;;;;;;;21.40;13.65;;;;;;;14.97;45.21;92945.22;4985956;28;20057;-92
2023/04/16 02:01:04;;;;;;;22.13;14.18;;;;;;;14.96;45.18;92938.28;4971160;28;20042;-93
2023/04/16 02:03:30;;;;;;;22.77;14.75;;;;;;;15.00;45.23;92943.47;5004145;28;20046;-92
2023/04/16 02:05:55;;;;;;;24.10;14.52;;;;;;;15.02;45.65;92943.72;4971641;28;20031;-93
2023/04/16 02:08:21;;;;;;;21.90;14.40;;;;;;;14.97;44.86;92942.50;4971129;28;20049;-92
2023/04/16 02:10:48;;;;;;;21.23;13.82;;;;;;;14.98;45.43;92945.97;4992020;28;20075;-92
2023/04/16 02:13:16;;;;;;;20.40;13.88;;;;;;;15.00;45.24;92938.03;4951086;28;20035;-93
2023/04/16 02:15:48;;;;;;;24.85;14.20;;;;;;;15.02;45.25;92943.72;4999800;28;20038;-92
2023/04/16 02:18:13;;;;;;;23.83;13.85;;;;;;;15.01;45.00;92947.69;4966927;28;20054;-92
2023/04/16 02:20:43;;;;;;;20.98;13.57;;;;;;;15.06;45.52;92947.69;4968634;28;20027;-93
2023/04/16 02:23:09;;;;;;;21.25;13.13;;;;;;;15.03;45.22;92948.66;5001748;28;20043;-93
2023/04/16 02:25:40;;;;;;;20.65;13.10;;;;;;;15.05;45.26;92945.44;5004342;28;20346;-93
2023/04/16 02:28:09;;;;;;;19.60;13.30;;;;;;;15.01;45.16;92945.72;4970754;28;20092;-92
2023/04/16 02:30:36;;;;;;;20.27;12.48;;;;;;;15.06;45.29;92950.41;5004632;28;20041;-93
2023/04/16 02:33:04;;;;;;;18.50;13.10;;;;;;;14.99;45.24;92950.16;4971094;28;20081;-93
2023/04/16 02:35:33;;;;;;;18.92;12.50;;;;;;;15.03;45.13;92962.28;4972132;28;20050;-93
2023/04/16 02:37:58;;;;;;;18.83;12.23;;;;;;;14.99;44.84;92958.31;4969207;28;20121;-92
2023/04/16 02:40:24;;;;;;;19.42;11.63;;;;;;;15.02;45.28;92958.06;5003941;28;20035;-93
2023/04/16 02:42:49;;;;;;;21.15;13.82;;;;;;;15.02;45.31;92960.78;4964070;28;20031;-93
2023/04/16 02:45:15;;;;;;;22.50;13.57;;;;;;;14.94;45.16;92950.94;4983831;28;20042;-93
2023/04/16 02:47:40;;;;;;;19.20;13.23;;;;;;;14.96;45.40;92959.31;4954115;28;20039;-93
2023/04/16 02:50:06;;;;;;;18.45;12.15;;;;;;;15.00;45.64;92965.25;4970353;28;20493;-92
2023/04/16 02:52:32;;;;;;;16.63;11.32;;;;;;;15.07;45.25;92960.03;4987082;28;20612;-92
2023/04/16 02:54:58;;;;;;;20.15;12.30;;;;;;;15.05;45.43;92962.53;4978193;28;20038;-92
2023/04/16 02:57:23;;;;;;;19.00;12.48;;;;;;;15.02;45.27;92960.78;4963731;28;20053;-93
2023/04/16 02:59:49;;;;;;;16.38;11.50;;;;;;;15.04;45.34;92963.03;5005922;28;20125;-93
2023/04/16 03:02:15;;;;;;;17.35;11.88;;;;;;;15.03;45.15;92965.00;4974248;28;20030;-92
2023/04/16 03:04:40;;;;;;;18.05;11.52;;;;;;;15.06;45.31;92972.19;5007073;28;20042;-92
2023/04/16 03:07:08;;;;;;;17.50;11.50;;;;;;;15.08;45.44;92969.69;4973600;28;20034;-93
2023/04/16 03:09:34;;;;;;;15.98;11.07;;;;;;;15.02;45.02;92974.41;5006884;28;20046;-92
2023/04/16 03:12:03;;;;;;;18.70;11.63;;;;;;;14.98;45.25;92971.19;4966545;28;20042;-93
2023/04/16 03:14:29;;;;;;;16.80;11.85;;;;;;;15.00;45.28;92970.69;4963104;28;20051;-92
2023/04/16 03:16:55;;;;;;;15.90;10.65;;;;;;;15.01;45.06;92970.19;4971516;28;20038;-92
2023/04/16 03:19:20;;;;;;;15.18;9.63;;;;;;;15.07;45.24;92979.09;4983917;28;20521;-92
2023/04/16 03:21:46;;;;;;;19.17;11.23;;;;;;;15.03;45.42;92972.44;4990345;28;20026;-91
2023/04/16 03:24:12;;;;;;;16.08;11.35;;;;;;;14.96;45.32;92979.13;4957324;28;20039;-92
2023/04/16 03:26:37;;;;;;;15.27;10.55;;;;;;;15.04;45.23;92982.81;4971029;28;20042;-93
2023/04/16 03:29:03;;;;;;;15.98;10.85;;;;;;;15.04;45.10;92984.78;4969883;28;20042;-93
2023/04/16 03:31:28;;;;;;;16.38;10.90;;;;;;;15.03;45.17;92989.50;4970607;28;20039;-93
2023/04/16 03:33:53;;;;;;;15.18;9.75;;;;;;;15.08;45.40;92991.47;4970908;28;20039;-93
2023/04/16 03:36:19;;;;;;;17.23;10.55;;;;;;;15.08;45.01;92986.03;4989506;28;20112;-92
2023/04/16 03:38:45;;;;;;;16.63;10.60;;;;;;;15.04;44.91;92990.25;5001508;28;20035;-92
2023/04/16 03:41:10;;;;;;;16.23;10.85;;;;;;;15.02;45.15;92998.16;4973410;28;20042;-93
2023/04/16 03:43:36;;;;;;;16.83;10.45;;;;;;;14.99;45.16;92996.44;5005322;28;20398;-93
2023/04/16 03:46:01;;;;;;;15.63;10.35;;;;;;;14.96;45.10;92986.53;4959737;28;20117;-93
2023/04/16 03:48:26;;;;;;;15.00;9.82;;;;;;;14.96;45.28;92994.69;4952631;28;20198;-92
2023/04/16 03:50:52;;;;;;;15.10;10.27;;;;;;;14.94;45.17;92992.47;4967652;28;20090;-93
2023/04/16 03:53:17;;;;;;;16.02;10.43;;;;;;;15.04;45.05;92992.97;4972804;28;20417;-93
2023/04/16 03:55:43;;;;;;;15.68;9.43;;;;;;;14.99;44.97;93002.63;5006566;28;20031;-93
2023/04/16 03:58:08;;;;;;;18.08;10.85;;;;;;;14.98;44.85;93003.13;4960058;28;20046;-92
2023/04/16 04:00:34;;;;;;;17.02;9.98;;;;;;;14.97;45.40;92998.91;4986337;28;20043;-93
2023/04/16 04:02:59;;;;;;;14.15;9.95;;;;;;;15.01;45.41;93002.88;4970596;28;20031;-92
2023/04/16 04:05:25;;;;;;;13.48;10.10;;;;;;;14.98;45.37;93006.56;4958388;28;20039;-91
2023/04/16 04:07:50;;;;;;;16.77;9.20;;;;;;;15.05;45.42;93005.34;5006121;28;20038;-92
2023/04/16 04:10:15;;;;;;;16.13;9.27;;;;;;;15.01;45.18;93016.47;4971064;28;20053;-93
2023/04/16 04:12:41;;;;;;;14.95;10.07;;;;;;;15.05;45.18;93027.13;4969990;28;20046;-93
2023/04/16 04:15:07;;;;;;;12.85;8.25;;;;;;;15.10;45.24;93023.66;4980484;28;20032;-93
2023/04/16 04:17:33;;;;;;;15.93;9.68;;;;;;;15.03;45.27;93029.59;4970502;28;20069;-93
2023/04/16 04:19:58;;;;;;;12.70;8.45;;;;;;;15.11;45.20;93029.84;4953400;28;20441;-91
2023/04/16 04:22:24;;;;;;;13.45;9.00;;;;;;;14.99;45.01;93035.28;4969359;28;20074;-91
2023/04/16 04:24:49;;;;;;;18.17;10.05;;;;;;;14.99;45.33;93032.56;4999728;28;20066;-90
2023/04/16 04:27:15;;;;;;;15.73;8.90;;;;;;;14.94;45.18;93033.31;4972973;28;20030;-91
2023/04/16 04:29:40;;;;;;;14.50;9.65;;;;;;;14.95;45.28;93034.03;4997834;28;20046;-90
2023/04/16 04:32:06;;;;;;;12.70;8.43;;;;;;;14.95;45.27;93034.78;4982617;28;20055;-91
2023/04/16 04:34:31;;;;;;;13.77;9.13;;;;;;;14.95;45.19;93039.50;4982315;28;20043;-91
2023/04/16 04:36:56;;;;;;;15.10;9.18;;;;;;;15.01;45.29;93048.41;4983883;28;20033;-91
2023/04/16 04:39:22;;;;;;;14.73;8.70;;;;;;;15.05;45.35;93036.03;4970676;28;20054;-90
2023/04/16 04:41:47;;;;;;;12.38;8.88;;;;;;;15.06;45.38;93042.22;4969669;28;20557;-91
2023/04/16 04:44:13;;;;;;;11.70;8.40;;;;;;;15.03;45.12;93041.22;4976860;28;20041;-90
2023/04/16 04:46:39;;;;;;;13.10;7.82;;;;;;;14.98;45.38;93054.81;4988993;28;20042;-91
2023/04/16 04:49:05;;;;;;;13.55;8.25;;;;;;;15.02;45.10;93058.03;4987772;28;20056;-90
2023/04/16 04:51:31;;;;;;;13.40;8.55;;;;;;;14.96;45.05;93066.22;4972812;28;20045;-90
2023/04/16 04:53:56;;;;;;;12.25;7.55;;;;;;;15.02;45.28;93072.41;4969298;28;20038;-90
2023/04/16 04:56:22;;;;;;;10.20;7.63;;;;;;;15.04;45.36;93064.47;4984450;28;20049;-91
2023/04/16 04:58:49;;;;;;;11.10;7.45;;;;;;;14.98;45.41;93068.44;4972123;28;20129;-90
2023/04/16 05:01:14;;;;;;;11.93;8.02;;;;;;;14.95;45.18;93078.34;4971685;28;20035;-91
2023/04/16 05:03:40;;;;;;;12.90;8.05;;;;;;;14.96;45.25;93076.34;5004801;28;20358;-90
2023/04/16 05:06:05;;;;;;;13.48;7.88;;;;;;;14.98;45.14;93076.59;4975743;28;20042;-91
2023/04/16 05:08:31;;;;;;;11.82;7.80;;;;;;;14.94;45.27;93084.28;5004498;28;20038;-92
2023/04/16 05:10:56;;;;;;;13.48;8.15;;;;;;;15.01;45.44;93078.34;4972571;28;20391;-91
2023/04/16 05:13:22;;;;;;;13.63;8.25;;;;;;;14.97;45.23;93086.75;4970478;28;20054;-91
2023/04/16 05:15:47;;;;;;;13.07;8.27;;;;;;;15.04;45.36;93083.53;4968859;28;20066;-90
2023/04/16 05:18:13;;;;;;;12.40;7.45;;;;;;;15.00;45.11;93083.03;4984637;28;20502;-90
2023/04/16 05:20:38;;;;;;;10.68;7.32;;;;;;;15.03;45.29;93082.03;4968932;28;20544;-91
2023/04/16 05:23:03;;;;;;;14.40;7.97;;;;;;;15.06;45.31;93091.22;4967912;28;20034;-92
2023/04/16 05:25:29;;;;;;;12.95;7.80;;;;;;;15.00;45.18;93095.91;4968746;28;20079;-90
2023/04/16 05:27:55;;;;;;;12.45;7.70;;;;;;;15.03;45.35;93097.63;4968848;28;20043;-91
2023/04/16 05:30:20;;;;;;;14.30;7.07;;;;;;;14.97;45.10;93091.44;4982545;28;20046;-91
2023/04/16 05:32:45;;;;;;;11.70;7.15;;;;;;;14.94;45.34;93098.63;4988074;28;20039;-91
2023/04/16 05:35:11;;;;;;;12.35;7.65;;;;;;;14.97;45.52;93096.91;4986961;28;20046;-90
2023/04/16 05:37:36;;;;;;;9.88;7.32;;;;;;;14.99;45.38;93108.03;4984696;28;20047;-90
2023/04/16 05:40:02;;;;;;;11.57;7.45;;;;;;;15.00;45.24;93107.53;4992592;28;20034;-92
2023/04/16 05:42:28;;;;;;;10.63;6.82;;;;;;;14.95;45.17;93105.56;4968208;28;20039;-91
2023/04/16 05:44:53;;;;;;;11.68;7.63;;;;;;;14.96;45.33;93103.56;4984320;28;20046;-91
2023/04/16 05:47:19;;;;;;;9.70;6.85;;;;;;;15.05;45.54;93100.59;5000309;28;20039;-90
2023/04/16 05:49:44;;;;;;;10.68;7.32;;;;;;;14.98;45.32;93101.09;5004735;28;20068;-92
2023/04/16 05:52:11;;;;;;;9.77;7.07;;;;;;;14.96;45.42;93087.97;4987290;28;20038;-91
2023/04/16 05:54:36;;;;;;;12.60;7.57;;;;;;;15.02;45.21;93101.59;4986814;28;20519;-90
2023/04/16 05:57:02;;;;;;;10.27;7.63;;;;;;;14.99;45.05;93108.03;4978161;28;20035;-91
2023/04/16 05:59:28;;;;;;;13.00;6.97;;;;;;;14.97;45.39;93113.97;4970080;28;20046;-91
2023/04/16 06:01:53;;;;;;;9.77;6.90;;;;;;;15.04;45.18;93118.91;4984527;28;20031;-90
2023/04/16 06:04:19;;;;;;;9.32;6.53;;;;;;;14.95;45.42;93118.41;4967998;28;20027;-90
2023/04/16 06:06:44;;;;;;;10.85;6.32;;;;;;;14.96;45.42;93120.66;4969477;28;20050;-90
2023/04/16 06:09:10;;;;;;;9.07;6.10;;;;;;;14.97;45.31;93121.38;4967215;28;20034;-90
2023/04/16 06:11:36;;;;;;;8.80;6.28;;;;;;;14.99;45.43;93127.09;4970354;28;20053;-89
2023/04/16 06:14:02;;;;;;;9.55;6.10;;;;;;;14.91;45.09;93126.84;4971626;28;20038;-90
2023/04/16 06:16:27;;;;;;;9.27;6.65;;;;;;;14.94;45.39;93125.13;4971197;28;20548;-90
2023/04/16 06:18:53;;;;;;;10.60;6.93;;;;;;;14.92;45.35;93136.50;4971968;28;20035;-90
2023/04/16 06:21:18;;;;;;;10.55;6.50;;;;;;;14.92;45.25;93131.06;4988853;28;20108;-91
2023/04/16 06:23:43;;;;;;;9.20;6.10;;;;;;;14.95;45.27;93137.47;4984510;28;20027;-91
2023/04/16 06:26:09;;;;;;;9.45;6.05;;;;;;;14.97;45.35;93135.75;4970603;28;20039;-90
2023/04/16 06:28:35;;;;;;;8.35;6.57;;;;;;;14.95;45.07;93137.47;4980784;28;20453;-90
2023/04/16 06:31:00;;;;;;;11.23;6.75;;;;;;;14.98;45.67;93131.03;4955444;28;20073;-90
2023/04/16 06:33:26;;;;;;;11.73;6.53;;;;;;;14.94;45.45;93134.00;4987639;28;20410;-91
2023/04/16 06:35:51;;;;;;;9.98;6.82;;;;;;;14.91;45.48;93140.47;4969669;28;20045;-92
2023/04/16 06:38:18;;;;;;;15.73;10.65;;;;;;;14.94;45.41;93146.91;4962024;28;20114;-92
2023/04/16 06:40:44;;;;;;;11.27;7.93;;;;;;;14.88;45.42;93146.88;4958698;28;20042;-93
2023/04/16 06:43:09;;;;;;;10.23;6.30;;;;;;;14.85;45.55;93142.44;4952837;28;20042;-93
2023/04/16 06:45:35;;;;;;;97.45;37.13;;;;;;;14.92;45.36;93146.66;4951002;28;20035;-92
2023/04/16 06:48:02;;;;;;;28.38;12.13;;;;;;;14.90;45.44;93144.41;4968368;28;20429;-93
2023/04/16 06:50:27;;;;;;;10.80;7.25;;;;;;;14.92;45.32;93144.66;5002869;28;20043;-93
2023/04/16 06:52:53;;;;;;;15.75;8.80;;;;;;;14.91;45.55;93142.44;4987492;28;20532;-92
2023/04/16 06:55:19;;;;;;;13.52;8.02;;;;;;;14.92;45.51;93152.09;4971035;28;20035;-93
2023/04/16 06:57:44;;;;;;;15.82;8.32;;;;;;;14.92;45.34;93150.13;4977718;28;20472;-92
2023/04/16 07:00:10;;;;;;;11.15;7.35;;;;;;;14.94;45.42;93155.06;4978797;28;20485;-93
2023/04/16 07:02:36;;;;;;;9.93;6.90;;;;;;;14.97;45.40;93154.78;4990517;28;20132;-93
2023/04/16 07:05:01;;;;;;;9.65;7.18;;;;;;;14.92;45.27;93162.97;4987099;28;20506;-92
2023/04/16 07:07:27;;;;;;;10.75;7.00;;;;;;;14.90;45.27;93160.75;4974204;28;20041;-92
2023/04/16 07:09:52;;;;;;;12.35;7.63;;;;;;;14.93;45.18;93167.19;4991517;28;20038;-93
2023/04/16 07:12:18;;;;;;;8.38;6.47;;;;;;;14.92;45.35;93158.28;4988572;28;20053;-93
2023/04/16 07:14:44;;;;;;;9.43;6.38;;;;;;;14.96;45.82;93166.16;4971284;28;20038;-93
2023/04/16 07:17:09;;;;;;;10.93;6.90;;;;;;;14.91;45.15;93170.41;4990338;28;20454;-92
2023/04/16 07:19:35;;;;;;;9.63;6.75;;;;;;;14.92;45.10;93179.31;4990426;28;20050;-92
2023/04/16 07:22:01;;;;;;;10.00;6.63;;;;;;;14.94;45.22;93169.38;4990283;28;20042;-93
2023/04/16 07:24:26;;;;;;;9.00;6.40;;;;;;;14.93;45.21;93184.25;4972448;28;20053;-93
2023/04/16 07:26:52;;;;;;;10.23;6.65;;;;;;;14.94;45.33;93172.09;4990316;28;20035;-93
2023/04/16 07:29:17;;;;;;;9.57;6.18;;;;;;;14.98;45.71;93178.06;4989318;28;20046;-92
2023/04/16 07:31:43;;;;;;;8.82;6.18;;;;;;;14.93;45.32;93175.34;4970640;28;20050;-93
2023/04/16 07:34:09;;;;;;;10.32;6.30;;;;;;;14.95;45.31;93181.00;4964575;28;20398;-93
2023/04/16 07:36:35;;;;;;;9.88;6.32;;;;;;;14.90;45.42;93177.06;4990353;28;20045;-93
2023/04/16 07:39:00;;;;;;;9.25;6.03;;;;;;;14.88;45.78;93179.53;4989563;28;20093;-92
2023/04/16 07:41:26;;;;;;;8.93;6.20;;;;;;;14.92;45.31;93182.03;4988992;28;20426;-93
2023/04/16 07:43:51;;;;;;;9.45;6.18;;;;;;;14.95;45.42;93179.03;4990513;28;20039;-93
2023/04/16 07:46:16;;;;;;;7.68;5.70;;;;;;;14.93;45.47;93188.97;4988776;28;20092;-93
2023/04/16 07:48:42;;;;;;;9.07;6.10;;;;;;;14.91;45.29;93189.44;5006527;28;20042;-92
2023/04/16 07:51:07;;;;;;;7.28;5.32;;;;;;;14.96;44.99;93196.09;4972908;28;20112;-93
2023/04/16 07:53:33;;;;;;;8.48;5.88;;;;;;;14.99;45.22;93190.44;4989378;28;20046;-93
2023/04/16 07:55:58;;;;;;;6.97;5.50;;;;;;;14.95;45.41;93194.63;4989921;28;20050;-92
2023/04/16 07:58:24;;;;;;;11.88;6.07;;;;;;;14.93;45.34;93194.41;4960831;28;20043;-92
2023/04/16 08:00:50;;;;;;;7.85;6.03;;;;;;;14.99;45.50;93197.84;4970279;28;20109;-91
2023/04/16 08:03:15;;;;;;;7.75;5.15;;;;;;;14.97;45.27;93197.59;4967989;28;20036;-90
2023/04/16 08:05:41;;;;;;;8.13;5.43;;;;;;;14.92;45.27;93201.81;4979681;28;20049;-91
2023/04/16 08:08:06;;;;;;;7.88;5.57;;;;;;;14.92;45.23;93203.81;4988588;28;20038;-91
2023/04/16 08:10:32;;;;;;;8.68;5.78;;;;;;;14.95;45.18;93200.81;4989397;28;20053;-91
2023/04/16 08:12:59;;;;;;;7.82;5.65;;;;;;;14.95;45.48;93195.38;4985416;28;20035;-90
2023/04/16 08:15:25;;;;;;;7.13;5.65;;;;;;;14.94;45.17;93202.03;4987699;28;20520;-90
2023/04/16 08:17:50;;;;;;;8.93;5.88;;;;;;;14.94;45.62;93204.06;5042943;28;20049;-91
2023/04/16 08:20:17;;;;;;;6.93;5.57;;;;;;;14.93;45.19;93208.00;4991554;28;20513;-90
2023/04/16 08:22:44;;;;;;;10.98;5.70;;;;;;;14.92;45.53;93218.16;4975704;28;20117;-91
2023/04/16 08:25:10;;;;;;;10.07;5.43;;;;;;;14.86;45.76;93208.47;4981552;28;20136;-91
2023/04/16 08:27:35;;;;;;;8.73;5.60;;;;;;;14.92;45.42;93214.69;4994816;28;20029;-91
2023/04/16 08:30:01;;;;;;;11.15;5.05;;;;;;;15.00;45.62;93218.38;4991781;28;20451;-90
2023/04/16 08:32:26;;;;;;;7.03;5.03;;;;;;;14.96;45.78;93223.31;4994344;28;20138;-90
2023/04/16 08:34:52;;;;;;;10.18;5.05;;;;;;;14.96;45.39;93228.78;5001617;28;20038;-91
2023/04/16 08:37:17;;;;;;;9.20;5.03;;;;;;;14.96;45.44;93223.31;4994043;28;20037;-91
2023/04/16 08:39:43;;;;;;;12.48;5.70;;;;;;;14.99;45.50;93219.63;4990675;28;20046;-92
2023/04/16 08:42:13;;;;;;;33.72;8.82;;;;;;;14.95;45.67;93228.03;4987699;28;20524;-90
2023/04/16 08:44:42;;;;;;;70.75;12.65;;;;;;;14.94;45.48;93218.38;4991170;28;20045;-90
2023/04/16 08:47:07;;;;;;;39.45;11.65;;;;;;;14.96;45.76;93232.25;4974353;28;20060;-91
2023/04/16 08:49:33;;;;;;;35.13;14.13;;;;;;;14.97;45.68;93231.00;4956899;28;20506;-91
2023/04/16 08:51:58;;;;;;;34.65;14.77;;;;;;;14.96;45.60;93234.97;4953832;28;20035;-91
2023/04/16 08:54:24;;;;;;;33.28;14.52;;;;;;;14.98;45.53;93234.47;4993144;28;20034;-90
2023/04/16 08:56:50;;;;;;;36.72;17.85;;;;;;;15.03;46.05;93233.75;4995151;28;20382;-90
2023/04/16 08:59:15;;;;;;;33.15;15.95;;;;;;;15.01;45.83;93238.94;4977800;28;20027;-91
2023/04/16 09:01:40;;;;;;;34.22;14.07;;;;;;;14.96;45.88;93240.41;5001963;28;20265;-90
2023/04/16 09:04:06;;;;;;;39.38;16.30;;;;;;;14.90;46.06;93245.13;4974404;28;20047;-92
2023/04/16 09:06:32;;;;;;;48.70;16.65;;;;;;;14.93;46.21;93251.56;4998368;28;20055;-90
2023/04/16 09:08:57;;;;;;;44.97;14.65;;;;;;;14.91;46.12;93243.88;4953390;28;20039;-91
2023/04/16 09:11:23;;;;;;;31.98;13.23;;;;;;;14.83;46.12;93253.00;4968411;28;20351;-90
2023/04/16 09:13:48;;;;;;;37.60;15.18;;;;;;;14.85;45.83;93255.97;4964937;28;20042;-92
2023/04/16 09:16:14;;;;;;;27.70;14.35;;;;;;;14.85;46.10;93255.97;4971920;28;20481;-90
2023/04/16 09:18:40;;;;;;;28.77;12.50;;;;;;;14.85;46.58;93264.88;5005274;28;20066;-91
2023/04/16 09:21:06;;;;;;;30.27;14.38;;;;;;;14.80;46.42;93262.88;4972096;28;20038;-91
2023/04/16 09:23:33;;;;;;;32.10;13.80;;;;;;;14.83;46.69;93267.34;5001209;28;20043;-90
2023/04/16 09:25:58;;;;;;;25.85;13.90;;;;;;;14.87;46.11;93267.13;4964982;28;20529;-89
2023/04/16 09:28:40;;;;;;;26.83;14.15;;;;;;;14.80;46.34;93270.31;5000557;28;20043;-91
2023/04/16 09:31:12;;;;;;;30.65;14.13;;;;;;;14.85;46.29;93275.78;4968072;28;20057;-91
2023/04/16 09:33:37;;;;;;;25.90;14.60;;;;;;;14.86;46.09;93279.25;4984752;28;20085;-90
2023/04/16 09:36:03;;;;;;;33.90;13.98;;;;;;;14.85;46.19;93291.34;5003792;28;20560;-90
2023/04/16 09:38:48;;;;;;;29.83;15.20;;;;;;;14.79;46.47;93285.88;4994302;28;20122;-90
2023/04/16 09:41:16;;;;;;;27.60;14.13;;;;;;;14.75;46.55;93286.13;4968305;28;20038;-90
2023/04/16 09:43:57;;;;;;;33.80;16.55;;;;;;;14.75;46.47;93288.09;4968933;28;20118;-90
2023/04/16 09:46:26;;;;;;;52.33;19.85;;;;;;;14.81;46.02;93290.84;4968722;28;20272;-90
2023/04/16 09:48:51;;;;;;;41.92;17.70;;;;;;;14.72;46.25;93295.25;4984331;28;20390;-91
2023/04/16 09:51:17;;;;;;;30.35;15.90;;;;;;;14.75;46.45;93291.56;4992236;28;20046;-92
2023/04/16 09:53:42;;;;;;;32.75;15.82;;;;;;;14.70;46.50;93288.84;5003728;28;20038;-91
2023/04/16 09:56:10;;;;;;;36.97;16.00;;;;;;;14.76;46.47;93292.31;4967075;28;20069;-91
2023/04/16 09:58:36;;;;;;;33.28;16.10;;;;;;;14.78;46.44;93294.53;4982837;28;20046;-90
2023/04/16 10:01:04;;;;;;;35.38;17.05;;;;;;;14.72;46.54;93292.53;4968605;28;20057;-91
2023/04/16 10:03:30;;;;;;;58.75;18.83;;;;;;;14.72;46.72;93294.53;4955859;28;20459;-91
2023/04/16 10:06:14;;;;;;;56.13;20.08;;;;;;;14.73;46.85;93302.19;4971395;28;20112;-92
2023/04/16 10:08:51;;;;;;;50.15;17.35;;;;;;;14.77;46.63;93304.69;4963890;28;20054;-92
2023/04/16 10:11:18;;;;;;;43.65;20.13;;;;;;;14.71;46.24;93301.97;4956509;28;20241;-91
2023/04/16 10:13:43;;;;;;;50.78;21.10;;;;;;;14.70;46.51;93303.19;4955065;28;20054;-90
2023/04/16 10:16:09;;;;;;;37.10;19.90;;;;;;;14.65;46.43;93303.91;4951985;28;20046;-93
2023/04/16 10:18:38;;;;;;;50.22;21.48;;;;;;;14.69;46.23;93309.88;5001063;28;20038;-92
2023/04/16 10:21:04;;;;;;;48.72;19.45;;;;;;;14.70;46.25;93302.44;4993142;28;20038;-91
2023/04/16 10:23:29;;;;;;;45.00;19.83;;;;;;;14.73;46.22;93299.47;5001379;28;20050;-91
2023/04/16 10:25:56;;;;;;;51.67;22.27;;;;;;;14.78;46.50;93306.16;4952026;28;20074;-91
2023/04/16 10:28:21;;;;;;;45.30;20.30;;;;;;;14.78;45.99;93305.44;5000101;28;20513;-91
2023/04/16 10:30:51;;;;;;;47.65;20.75;;;;;;;14.80;46.04;93300.97;4984254;28;20097;-89
2023/04/16 10:33:21;;;;;;;42.23;23.27;;;;;;;14.80;46.16;93292.06;4983881;28;20031;-92
2023/04/16 10:35:46;;;;;;;40.58;21.92;;;;;;;14.79;46.45;93298.75;4970431;28;20081;-92
2023/04/16 10:38:24;;;;;;;40.83;21.30;;;;;;;14.89;46.30;93303.50;4992413;28;20483;-93
2023/04/16 10:40:57;;;;;;;42.72;21.77;;;;;;;14.84;46.15;93295.31;4963167;28;20042;-93
2023/04/16 10:43:22;;;;;;;45.45;23.50;;;;;;;14.82;46.21;93309.41;4958774;28;20047;-93
2023/04/16 10:45:48;;;;;;;54.35;24.92;;;;;;;14.77;46.19;93314.81;4997662;28;20077;-90
2023/04/16 10:48:15;;;;;;;38.88;22.88;;;;;;;14.91;46.19;93311.91;4972222;28;20077;-93
2023/04/16 10:50:41;;;;;;;41.97;22.58;;;;;;;14.94;45.88;93312.91;5003979;28;20038;-91
2023/04/16 10:53:19;;;;;;;41.33;23.70;;;;;;;14.95;46.17;93320.56;4964652;28;20099;-92
2023/04/16 10:56:11;;;;;;;40.55;24.00;;;;;;;14.98;46.04;93316.88;4965739;28;20031;-91
2023/04/16 10:58:37;;;;;;;47.42;24.58;;;;;;;14.98;45.93;93321.56;4978817;28;20050;-93
2023/04/16 11:01:12;;;;;;;39.42;21.70;;;;;;;15.04;46.14;93319.63;5007165;28;20042;-92
2023/04/16 11:03:41;;;;;;;48.75;23.83;;;;;;;15.00;45.90;93313.66;4959686;28;20509;-92
2023/04/16 11:06:16;;;;;;;459.98;314.40;;;;;;;15.01;46.15;93318.63;4982659;28;20043;-91
2023/04/16 11:08:47;;;;;;;131.15;80.22;;;;;;;15.02;46.43;93322.81;5010415;28;20313;-91
2023/04/16 11:11:12;;;;;;;91.32;64.22;;;;;;;15.05;46.34;93321.09;4965669;28;20046;-91
2023/04/16 11:13:41;;;;;;;44.72;26.83;;;;;;;15.06;46.24;93319.88;4972164;28;20042;-91
2023/04/16 11:16:07;;;;;;;47.65;27.20;;;;;;;15.03;46.29;93313.44;4958813;28;20049;-90
2023/04/16 11:18:32;;;;;;;115.03;69.57;;;;;;;15.01;46.66;93320.59;5010312;28;20043;-94